Decoded Metar for LFKS (SOLENZARA in CORSE ISL.) (IATA:SOZ) | Meteo·Mobile Aviation Weather
aviador You're here:

LFKS Decoded Metar

SOLENZARA in CORSE ISL.
Report Time2019-01-19 06:00:00
UTC Time2019-01-19 06:30:15
Flight Rules vfr VFR
Wind270° at 06 kt
W.Decomp.*RWY 18: 0.2 kt HW 6.0 kt RCW
W.Rank270° ranks 2
Current wind is above 270° avg. (5.6)
Visibility9999 m
Phenomena:N/A
Clouds:N/A
Expected CloudBase > 1,600 ft AGL from Temp-Dew spread
CeilingNone
Temp06°C (ISA -9)
Dew Point02°C (76% RH)
AAT2.2°C
QNH1012 hPa
Density Alt-866 ft
Elevation72 ft
Report Wrong Elevation
Raw Report
METAR LFKS 190600Z AUTO 27006KT CAVOK 06/02 Q1012=

Extra information for LFKS:More info

Metar Taf Metar & Taf Last 4 Metars F.Rules Stats Wind Profile Meteogram Temp Stats Airport Information Weather charts Add Link Nearby VenuesMetar ALERT Operation Metar Decoded Social comments